createdAt,value
2022-09-15T00:00:12.376Z,97.03
2022-09-15T00:02:40.847Z,97.83
2022-09-15T00:05:09.711Z,98.16
2022-09-15T00:07:38.547Z,97.85
2022-09-15T00:10:07.949Z,97.72
2022-09-15T00:12:36.685Z,98.52
2022-09-15T00:15:06.133Z,99.55
2022-09-15T00:17:34.901Z,100.00
2022-09-15T00:20:06.293Z,99.73
2022-09-15T00:22:35.734Z,99.82
2022-09-15T00:25:05.074Z,100.00
2022-09-15T00:27:33.801Z,100.00
2022-09-15T00:30:03.082Z,100.00
2022-09-15T00:32:33.951Z,100.00
2022-09-15T00:35:02.860Z,100.00
2022-09-15T00:37:31.620Z,100.00
2022-09-15T00:40:00.298Z,100.00
2022-09-15T00:42:29.495Z,100.00
2022-09-15T00:45:02.032Z,100.00
2022-09-15T00:47:38.774Z,100.00
2022-09-15T00:50:13.206Z,100.00
2022-09-15T00:52:49.704Z,100.00
2022-09-15T00:55:23.194Z,100.00
2022-09-15T00:58:06.852Z,100.00
2022-09-15T01:00:35.797Z,100.00
2022-09-15T01:03:04.635Z,100.00
2022-09-15T01:05:40.877Z,100.00
2022-09-15T01:08:27.734Z,100.00
2022-09-15T01:10:56.815Z,100.00
2022-09-15T01:13:25.543Z,100.00
2022-09-15T01:15:59.850Z,100.00
2022-09-15T01:18:31.677Z,100.00
2022-09-15T01:21:09.411Z,100.00
2022-09-15T01:24:15.365Z,100.00
2022-09-15T01:27:41.031Z,100.00
2022-09-15T01:30:16.888Z,100.00
2022-09-15T01:33:06.951Z,100.00
2022-09-15T01:35:50.914Z,100.00
2022-09-15T01:39:01.190Z,100.00
2022-09-15T01:41:46.910Z,100.00
2022-09-15T01:44:21.822Z,100.00
2022-09-15T01:46:57.171Z,100.00
2022-09-15T01:49:30.867Z,100.00
2022-09-15T01:52:00.264Z,100.00
2022-09-15T01:54:35.977Z,100.00
2022-09-15T01:57:04.912Z,100.00
2022-09-15T01:59:34.722Z,100.00
2022-09-15T02:02:10.136Z,100.00
2022-09-15T02:04:53.013Z,100.00
2022-09-15T02:07:45.583Z,100.00
2022-09-15T02:10:22.067Z,100.00
2022-09-15T02:13:00.756Z,100.00
2022-09-15T02:15:36.942Z,100.00
2022-09-15T02:18:08.759Z,100.00
2022-09-15T02:20:38.951Z,100.00
2022-09-15T02:23:29.057Z,100.00
2022-09-15T02:26:05.022Z,100.00
2022-09-15T02:28:37.185Z,100.00
2022-09-15T02:31:09.472Z,100.00
2022-09-15T02:33:44.568Z,100.00
2022-09-15T02:36:18.241Z,100.00
2022-09-15T02:38:55.821Z,100.00
2022-09-15T02:41:24.521Z,100.00
2022-09-15T02:43:53.003Z,100.00
2022-09-15T02:46:22.852Z,100.00
2022-09-15T02:48:51.718Z,100.00
2022-09-15T02:51:20.288Z,100.00
2022-09-15T02:53:49.399Z,100.00
2022-09-15T02:56:18.278Z,100.00
2022-09-15T02:58:47.042Z,100.00
2022-09-15T03:01:16.118Z,100.00
2022-09-15T03:03:46.171Z,100.00
2022-09-15T03:06:17.643Z,100.00
2022-09-15T03:08:52.100Z,100.00
2022-09-15T03:11:23.100Z,100.00
2022-09-15T03:13:56.868Z,100.00
2022-09-15T03:16:26.383Z,100.00
2022-09-15T03:18:56.467Z,100.00
2022-09-15T03:21:26.089Z,100.00
2022-09-15T03:23:55.710Z,100.00
2022-09-15T03:26:24.435Z,100.00
2022-09-15T03:28:53.368Z,100.00
2022-09-15T03:31:22.629Z,100.00
2022-09-15T03:33:51.312Z,100.00
2022-09-15T03:36:19.695Z,100.00
2022-09-15T03:38:50.578Z,100.00
2022-09-15T03:41:19.080Z,100.00
2022-09-15T03:43:47.825Z,100.00
2022-09-15T03:46:17.045Z,100.00
2022-09-15T03:48:47.236Z,99.49
2022-09-15T03:51:16.293Z,98.61
2022-09-15T03:53:48.083Z,98.22
2022-09-15T03:56:31.467Z,97.70
2022-09-15T03:59:04.826Z,97.76
2022-09-15T04:01:33.956Z,97.56
2022-09-15T04:04:02.974Z,96.53
2022-09-15T04:06:31.648Z,97.17
2022-09-15T04:09:02.701Z,97.26
2022-09-15T04:11:32.330Z,97.79
2022-09-15T04:14:00.767Z,99.48
2022-09-15T04:16:29.473Z,100.00
2022-09-15T04:18:58.352Z,100.00
2022-09-15T04:21:27.043Z,100.00
2022-09-15T04:23:55.609Z,100.00
2022-09-15T04:26:31.520Z,100.00
2022-09-15T04:29:04.330Z,100.00
2022-09-15T04:31:34.498Z,100.00
2022-09-15T04:34:03.023Z,100.00
2022-09-15T04:36:31.746Z,100.00
2022-09-15T04:39:00.405Z,100.00
2022-09-15T04:41:29.064Z,100.00
2022-09-15T04:43:57.557Z,99.08
2022-09-15T04:46:26.768Z,98.55
2022-09-15T04:48:55.637Z,98.34
2022-09-15T04:51:25.001Z,97.74
2022-09-15T04:53:53.839Z,97.33
2022-09-15T04:56:25.575Z,97.43
2022-09-15T04:59:03.445Z,97.47
2022-09-15T05:01:35.286Z,97.46
2022-09-15T05:04:04.933Z,96.29
2022-09-15T05:06:34.959Z,96.81
2022-09-15T05:09:09.959Z,96.13
2022-09-15T05:11:38.815Z,94.61
2022-09-15T05:14:08.439Z,94.61
2022-09-15T05:16:37.380Z,93.65
2022-09-15T05:19:06.297Z,93.72
2022-09-15T05:21:35.265Z,93.92
2022-09-15T05:24:03.876Z,94.01
2022-09-15T05:26:32.565Z,93.88
2022-09-15T05:29:01.262Z,94.31
2022-09-15T05:31:31.907Z,94.19
2022-09-15T05:34:03.711Z,94.60
2022-09-15T05:36:32.624Z,94.95
2022-09-15T05:39:01.933Z,95.54
2022-09-15T05:41:30.697Z,95.33
2022-09-15T05:43:59.216Z,95.25
2022-09-15T05:46:29.210Z,96.05
2022-09-15T05:48:59.067Z,95.65
2022-09-15T05:51:28.192Z,95.28
2022-09-15T05:53:56.864Z,96.36
2022-09-15T05:56:25.222Z,96.62
2022-09-15T05:58:54.029Z,95.16
2022-09-15T06:01:27.891Z,95.68
2022-09-15T06:03:57.854Z,96.27
2022-09-15T06:06:26.789Z,94.51
2022-09-15T06:08:58.960Z,94.18
2022-09-15T06:11:30.647Z,94.37
2022-09-15T06:14:04.239Z,93.46
2022-09-15T06:16:34.754Z,92.57
2022-09-15T06:19:03.796Z,91.67
2022-09-15T06:21:33.460Z,91.79
2022-09-15T06:24:07.118Z,90.39
2022-09-15T06:26:35.820Z,90.60
2022-09-15T06:29:05.402Z,90.91
2022-09-15T06:31:34.400Z,90.48
2022-09-15T06:34:04.090Z,90.50
2022-09-15T06:36:33.133Z,91.35
2022-09-15T06:39:01.564Z,89.77
2022-09-15T06:41:47.022Z,90.37
2022-09-15T06:44:20.387Z,91.10
2022-09-15T06:46:49.380Z,89.54
2022-09-15T06:49:17.919Z,87.41
2022-09-15T06:51:46.729Z,87.29
2022-09-15T06:54:16.212Z,88.61
2022-09-15T06:56:45.055Z,87.12
2022-09-15T06:59:15.216Z,86.13
2022-09-15T07:01:44.306Z,85.95
2022-09-15T07:04:12.470Z,85.97
2022-09-15T07:06:41.084Z,86.43
2022-09-15T07:09:11.104Z,87.25
2022-09-15T07:11:39.563Z,87.68
2022-09-15T07:14:08.410Z,88.05
2022-09-15T07:16:37.181Z,87.42
2022-09-15T07:19:06.179Z,85.71
2022-09-15T07:21:35.518Z,84.93
2022-09-15T07:24:07.230Z,83.62
2022-09-15T07:26:36.392Z,81.33
2022-09-15T07:29:07.062Z,80.41
2022-09-15T07:31:38.029Z,80.92
2022-09-15T07:34:07.722Z,79.06
2022-09-15T07:36:36.734Z,79.42
2022-09-15T07:39:06.128Z,80.19
2022-09-15T07:41:34.729Z,81.03
2022-09-15T07:44:03.957Z,79.16
2022-09-15T07:46:33.282Z,79.71
2022-09-15T07:49:03.514Z,79.57
2022-09-15T07:51:32.254Z,78.62
2022-09-15T07:54:00.531Z,78.48
2022-09-15T07:56:29.150Z,78.18
2022-09-15T07:58:58.298Z,76.43
2022-09-15T08:01:26.764Z,76.68
2022-09-15T08:03:56.327Z,76.86
2022-09-15T08:06:26.756Z,76.20
2022-09-15T08:09:00.437Z,75.03
2022-09-15T08:11:30.109Z,74.97
2022-09-15T08:14:03.031Z,72.07
2022-09-15T08:16:31.890Z,70.98
2022-09-15T08:19:00.911Z,69.61
2022-09-15T08:21:29.353Z,67.16
2022-09-15T08:24:01.388Z,67.73
2022-09-15T08:26:31.016Z,65.04
2022-09-15T08:29:00.704Z,63.25
2022-09-15T08:31:29.326Z,64.23
2022-09-15T08:33:58.374Z,59.89
2022-09-15T08:36:28.061Z,61.00
2022-09-15T08:38:57.065Z,59.79
2022-09-15T08:41:39.021Z,58.96
2022-09-15T08:44:08.550Z,59.23
2022-09-15T08:47:01.312Z,56.31
2022-09-15T08:49:51.050Z,56.25
2022-09-15T08:52:32.903Z,55.75
2022-09-15T08:55:07.253Z,55.05
2022-09-15T08:57:36.020Z,54.31
2022-09-15T09:00:05.219Z,52.09
2022-09-15T09:02:56.251Z,52.75
2022-09-15T09:05:29.430Z,51.79
2022-09-15T09:08:16.653Z,51.46
2022-09-15T09:11:17.213Z,50.75
2022-09-15T09:14:20.929Z,50.49
2022-09-15T09:17:23.070Z,48.53
2022-09-15T09:20:15.375Z,48.32
2022-09-15T09:22:50.061Z,47.88
2022-09-15T09:25:27.670Z,46.90
2022-09-15T09:27:58.435Z,46.86
2022-09-15T09:30:33.340Z,46.42
2022-09-15T09:33:30.617Z,46.74
2022-09-15T09:36:01.419Z,44.41
2022-09-15T09:38:43.239Z,44.93
2022-09-15T09:41:15.558Z,45.79
2022-09-15T09:43:47.123Z,45.06
2022-09-15T09:46:18.117Z,46.38
2022-09-15T09:48:58.411Z,46.43
2022-09-15T09:51:37.070Z,46.32
2022-09-15T09:54:18.075Z,48.53
2022-09-15T09:56:51.336Z,48.14
2022-09-15T09:59:41.050Z,50.00
2022-09-15T10:02:16.125Z,46.18
2022-09-15T10:04:53.819Z,45.33
2022-09-15T10:07:26.581Z,45.28
2022-09-15T10:10:00.563Z,45.41
2022-09-15T10:12:40.504Z,43.76
2022-09-15T10:15:23.790Z,43.04
2022-09-15T10:17:55.596Z,42.75
2022-09-15T10:20:46.287Z,44.02
2022-09-15T10:23:17.772Z,42.48
2022-09-15T10:26:01.843Z,41.89
2022-09-15T10:28:30.822Z,44.54
2022-09-15T10:31:03.934Z,43.71
2022-09-15T10:33:42.015Z,44.43
2022-09-15T10:36:22.787Z,42.96
2022-09-15T10:39:24.661Z,44.85
2022-09-15T10:42:36.783Z,46.71
2022-09-15T10:45:33.905Z,46.82
2022-09-15T10:48:23.711Z,48.75
2022-09-15T10:51:16.326Z,48.56
2022-09-15T10:53:47.941Z,50.14
2022-09-15T10:56:29.657Z,49.70
2022-09-15T10:59:49.399Z,51.36
2022-09-15T11:02:21.191Z,50.52
2022-09-15T11:05:04.577Z,50.39
2022-09-15T11:07:39.999Z,51.91
2022-09-15T11:10:35.441Z,51.73
2022-09-15T11:13:20.875Z,51.36
2022-09-15T11:15:49.660Z,51.81
2022-09-15T11:18:30.045Z,52.44
2022-09-15T11:21:36.746Z,53.41
2022-09-15T11:24:22.585Z,53.61
2022-09-15T11:27:19.155Z,54.64
2022-09-15T11:30:14.496Z,54.56
2022-09-15T11:32:47.981Z,55.12
2022-09-15T11:35:44.575Z,54.92
2022-09-15T11:38:35.774Z,55.92
2022-09-15T11:41:34.758Z,55.04
2022-09-15T11:44:34.397Z,55.63
2022-09-15T11:47:25.617Z,55.18
2022-09-15T11:50:03.604Z,56.66
2022-09-15T11:53:10.157Z,57.01
2022-09-15T11:56:01.045Z,56.79
2022-09-15T11:58:44.762Z,55.74
2022-09-15T12:01:21.503Z,56.99
2022-09-15T12:04:02.066Z,57.03
2022-09-15T12:06:45.547Z,56.67
2022-09-15T12:09:17.636Z,57.54
2022-09-15T12:11:53.459Z,57.25
2022-09-15T12:14:37.302Z,56.40
2022-09-15T12:17:08.238Z,57.97
2022-09-15T12:20:02.478Z,57.29
2022-09-15T12:22:49.663Z,58.74
2022-09-15T12:25:25.407Z,60.62
2022-09-15T12:28:35.147Z,63.29
2022-09-15T12:31:26.065Z,68.98
2022-09-15T12:34:04.257Z,76.54
2022-09-15T12:36:47.147Z,83.11
2022-09-15T12:39:30.281Z,83.75
2022-09-15T12:42:28.138Z,85.32
2022-09-15T12:45:07.174Z,90.05
2022-09-15T12:47:51.037Z,90.69
2022-09-15T12:50:19.520Z,88.28
2022-09-15T12:52:57.361Z,89.97
2022-09-15T12:55:31.200Z,93.72
2022-09-15T12:58:10.732Z,90.22
2022-09-15T13:01:06.815Z,92.19
2022-09-15T13:03:41.936Z,90.02
2022-09-15T13:06:10.349Z,89.20
2022-09-15T13:08:48.595Z,89.08
2022-09-15T13:11:40.128Z,90.38
2022-09-15T13:14:16.729Z,91.24
2022-09-15T13:17:06.982Z,92.09
2022-09-15T13:19:41.683Z,94.29
2022-09-15T13:22:30.178Z,95.12
2022-09-15T13:25:17.914Z,95.09
2022-09-15T13:27:52.496Z,94.86
2022-09-15T13:30:24.328Z,91.64
2022-09-15T13:33:24.325Z,88.24
2022-09-15T13:39:40.297Z,92.19
2022-09-15T13:42:18.626Z,94.78
2022-09-15T13:44:52.893Z,95.85
2022-09-15T13:47:40.423Z,95.62
2022-09-15T13:50:34.109Z,96.59
2022-09-15T13:53:25.641Z,97.66
2022-09-15T13:55:57.307Z,98.70
2022-09-15T14:01:17.257Z,98.06
2022-09-15T14:03:53.951Z,98.99
2022-09-15T14:06:30.350Z,99.23
2022-09-15T14:09:04.529Z,98.80
2022-09-15T14:11:35.281Z,99.61
2022-09-15T14:14:22.136Z,99.14
2022-09-15T14:16:50.846Z,98.26
2022-09-15T14:19:33.706Z,98.57
2022-09-15T14:22:26.261Z,98.49
2022-09-15T14:24:57.778Z,100.00
2022-09-15T14:27:29.427Z,100.00
2022-09-15T14:30:03.008Z,100.00
2022-09-15T14:32:39.048Z,100.00
2022-09-15T14:35:14.955Z,100.00
2022-09-15T14:37:54.378Z,100.00
2022-09-15T14:40:36.400Z,100.00
2022-09-15T14:43:25.144Z,100.00
2022-09-15T14:46:01.162Z,100.00
2022-09-15T14:48:34.236Z,100.00
2022-09-15T14:51:17.565Z,100.00
2022-09-15T14:53:49.358Z,100.00
2022-09-15T14:56:23.030Z,100.00
2022-09-15T14:58:56.108Z,100.00
2022-09-15T15:01:56.124Z,100.00
2022-09-15T15:04:30.783Z,100.00
2022-09-15T15:07:26.637Z,100.00
2022-09-15T15:10:05.820Z,100.00
2022-09-15T15:12:39.930Z,100.00
2022-09-15T15:15:12.142Z,100.00
2022-09-15T15:17:46.770Z,100.00
2022-09-15T15:20:27.198Z,100.00
2022-09-15T15:23:08.522Z,100.00
2022-09-15T15:25:37.586Z,100.00
2022-09-15T15:28:06.648Z,100.00
2022-09-15T15:30:44.930Z,100.00
2022-09-15T15:33:28.039Z,100.00
2022-09-15T15:36:05.845Z,100.00
2022-09-15T15:38:36.995Z,100.00
2022-09-15T15:41:08.197Z,100.00
2022-09-15T15:43:37.653Z,100.00
2022-09-15T15:46:06.737Z,100.00
2022-09-15T15:48:38.374Z,100.00
2022-09-15T15:51:09.353Z,100.00
2022-09-15T15:53:37.669Z,100.00
2022-09-15T15:56:08.266Z,100.00
2022-09-15T15:58:36.826Z,100.00
2022-09-15T16:01:05.088Z,100.00
2022-09-15T16:03:34.023Z,100.00
2022-09-15T16:06:03.040Z,100.00
2022-09-15T16:08:34.539Z,100.00
2022-09-15T16:11:04.062Z,100.00
2022-09-15T16:13:32.135Z,100.00
2022-09-15T16:16:01.344Z,100.00
2022-09-15T16:18:29.951Z,100.00
2022-09-15T16:20:58.096Z,100.00
2022-09-15T16:23:26.169Z,100.00
2022-09-15T16:26:03.597Z,100.00
2022-09-15T16:28:32.219Z,100.00
2022-09-15T16:31:00.792Z,100.00
2022-09-15T16:33:33.449Z,100.00
2022-09-15T16:36:09.030Z,100.00
2022-09-15T16:38:37.229Z,100.00
2022-09-15T16:41:16.567Z,100.00
2022-09-15T16:43:46.220Z,100.00
2022-09-15T16:46:16.044Z,100.00
2022-09-15T16:48:47.244Z,100.00
2022-09-15T16:51:28.404Z,100.00
2022-09-15T16:53:57.913Z,100.00
2022-09-15T16:56:27.062Z,100.00
2022-09-15T16:59:00.150Z,100.00
2022-09-15T17:01:29.249Z,100.00
2022-09-15T17:03:57.793Z,100.00
2022-09-15T17:06:26.078Z,100.00
2022-09-15T17:08:55.898Z,100.00
2022-09-15T17:11:25.516Z,100.00
2022-09-15T17:13:53.784Z,100.00
2022-09-15T17:16:22.593Z,100.00
2022-09-15T17:18:50.790Z,100.00
2022-09-15T17:21:19.798Z,100.00
2022-09-15T17:23:52.812Z,100.00
2022-09-15T17:26:27.632Z,100.00
2022-09-15T17:29:00.074Z,100.00
2022-09-15T17:31:28.323Z,100.00
2022-09-15T17:33:56.461Z,100.00
2022-09-15T17:36:26.323Z,100.00
2022-09-15T17:38:54.394Z,100.00
2022-09-15T17:41:22.861Z,100.00
2022-09-15T17:43:52.102Z,100.00
2022-09-15T17:46:21.082Z,100.00
2022-09-15T17:48:49.295Z,100.00
2022-09-15T17:51:20.974Z,100.00
2022-09-15T17:53:49.412Z,100.00
2022-09-15T17:56:17.946Z,100.00
2022-09-15T17:58:46.241Z,100.00
2022-09-15T18:01:15.380Z,100.00
2022-09-15T18:03:45.129Z,100.00
2022-09-15T18:06:16.935Z,100.00
2022-09-15T18:08:45.604Z,100.00
2022-09-15T18:11:15.384Z,100.00
2022-09-15T18:13:43.846Z,100.00
2022-09-15T18:16:14.078Z,100.00
2022-09-15T18:18:42.962Z,100.00
2022-09-15T18:21:24.809Z,100.00
2022-09-15T18:23:53.382Z,100.00
2022-09-15T18:26:26.373Z,100.00
2022-09-15T18:28:55.554Z,100.00
2022-09-15T18:31:24.254Z,100.00
2022-09-15T18:33:52.503Z,100.00
2022-09-15T18:36:21.039Z,100.00
2022-09-15T18:38:49.615Z,100.00
2022-09-15T18:41:17.686Z,100.00
2022-09-15T18:43:49.250Z,100.00
2022-09-15T18:46:18.364Z,100.00
2022-09-15T18:48:46.768Z,100.00
2022-09-15T18:51:24.137Z,100.00
2022-09-15T18:53:57.571Z,100.00
2022-09-15T18:56:25.701Z,100.00
2022-09-15T18:58:54.759Z,100.00
2022-09-15T19:01:23.405Z,100.00
2022-09-15T19:03:55.389Z,100.00
2022-09-15T19:06:23.990Z,100.00
2022-09-15T19:08:52.297Z,100.00
2022-09-15T19:11:20.758Z,100.00
2022-09-15T19:13:49.323Z,100.00
2022-09-15T19:16:22.899Z,100.00
2022-09-15T19:18:56.784Z,100.00
2022-09-15T19:21:27.347Z,100.00
2022-09-15T19:23:58.176Z,100.00
2022-09-15T19:26:29.376Z,100.00
2022-09-15T19:28:58.552Z,100.00
2022-09-15T19:31:28.186Z,100.00
2022-09-15T19:33:56.771Z,100.00
2022-09-15T19:36:29.156Z,100.00
2022-09-15T19:39:00.759Z,100.00
2022-09-15T19:41:30.593Z,100.00
2022-09-15T19:44:01.442Z,100.00
2022-09-15T19:46:31.078Z,100.00
2022-09-15T19:48:59.167Z,100.00
2022-09-15T19:51:27.391Z,100.00
2022-09-15T19:53:57.340Z,100.00
2022-09-15T19:56:27.278Z,100.00
2022-09-15T19:58:57.555Z,100.00
2022-09-15T20:01:28.327Z,100.00
2022-09-15T20:03:57.345Z,100.00
2022-09-15T20:06:30.088Z,100.00
2022-09-15T20:09:00.854Z,100.00
2022-09-15T20:11:30.299Z,100.00
2022-09-15T20:13:58.893Z,100.00
2022-09-15T20:16:28.499Z,100.00
2022-09-15T20:18:57.100Z,100.00
2022-09-15T20:21:50.423Z,100.00
2022-09-15T20:24:22.116Z,100.00
2022-09-15T20:26:50.760Z,100.00
2022-09-15T20:29:19.787Z,100.00
2022-09-15T20:31:48.384Z,100.00
2022-09-15T20:34:16.876Z,100.00
2022-09-15T20:36:45.256Z,100.00
2022-09-15T20:39:15.455Z,100.00
2022-09-15T20:41:46.602Z,100.00
2022-09-15T20:44:15.443Z,100.00
2022-09-15T20:46:47.782Z,100.00
2022-09-15T20:49:16.496Z,100.00
2022-09-15T20:51:45.234Z,100.00
2022-09-15T20:54:13.233Z,100.00
2022-09-15T20:56:41.915Z,100.00
2022-09-15T20:59:13.744Z,100.00
2022-09-15T21:01:43.692Z,100.00
2022-09-15T21:04:12.323Z,100.00
2022-09-15T21:06:40.647Z,100.00
2022-09-15T21:09:09.409Z,100.00
2022-09-15T21:11:37.700Z,100.00
2022-09-15T21:14:05.761Z,100.00
2022-09-15T21:16:35.084Z,100.00
2022-09-15T21:19:04.275Z,100.00
2022-09-15T21:21:33.698Z,100.00
2022-09-15T21:24:06.304Z,100.00
2022-09-15T21:27:00.064Z,100.00
2022-09-15T21:29:29.084Z,100.00
2022-09-15T21:31:57.847Z,100.00
2022-09-15T21:34:26.382Z,100.00
2022-09-15T21:36:55.001Z,100.00
2022-09-15T21:39:23.159Z,100.00
2022-09-15T21:41:51.233Z,100.00
2022-09-15T21:44:19.754Z,100.00
2022-09-15T21:46:48.079Z,100.00
2022-09-15T21:49:18.258Z,100.00
2022-09-15T21:51:46.853Z,100.00
2022-09-15T21:54:14.940Z,100.00
2022-09-15T21:56:43.028Z,100.00
2022-09-15T21:59:11.632Z,100.00
2022-09-15T22:01:39.919Z,100.00
2022-09-15T22:04:09.988Z,100.00
2022-09-15T22:06:40.651Z,100.00
2022-09-15T22:09:13.331Z,100.00
2022-09-15T22:11:41.861Z,100.00
2022-09-15T22:14:11.897Z,100.00
2022-09-15T22:16:42.043Z,100.00
2022-09-15T22:19:11.742Z,100.00
2022-09-15T22:21:42.046Z,100.00
2022-09-15T22:24:13.205Z,100.00
2022-09-15T22:26:43.519Z,100.00
2022-09-15T22:29:12.304Z,100.00
2022-09-15T22:31:42.050Z,100.00
2022-09-15T22:34:10.347Z,100.00
2022-09-15T22:36:38.691Z,100.00
2022-09-15T22:39:07.277Z,100.00
2022-09-15T22:41:37.537Z,100.00
2022-09-15T22:44:07.966Z,100.00
2022-09-15T22:46:36.237Z,100.00
2022-09-15T22:49:04.303Z,100.00
2022-09-15T22:51:32.681Z,100.00
2022-09-15T22:54:03.355Z,100.00
2022-09-15T22:56:31.531Z,100.00
2022-09-15T22:59:00.780Z,100.00
2022-09-15T23:01:30.995Z,100.00
2022-09-15T23:04:01.876Z,100.00
2022-09-15T23:06:32.475Z,100.00
2022-09-15T23:09:04.162Z,100.00
2022-09-15T23:11:33.478Z,100.00
2022-09-15T23:14:02.623Z,100.00
2022-09-15T23:16:31.102Z,100.00
2022-09-15T23:18:59.803Z,100.00
2022-09-15T23:21:28.578Z,100.00
2022-09-15T23:23:56.975Z,100.00
2022-09-15T23:26:26.852Z,100.00
2022-09-15T23:28:55.371Z,100.00
2022-09-15T23:31:23.705Z,100.00
2022-09-15T23:33:52.258Z,100.00
2022-09-15T23:36:20.612Z,100.00
2022-09-15T23:38:49.601Z,100.00
2022-09-15T23:41:18.728Z,100.00
2022-09-15T23:43:47.502Z,100.00
2022-09-15T23:46:16.263Z,100.00
2022-09-15T23:48:45.143Z,100.00
2022-09-15T23:51:14.311Z,100.00
2022-09-15T23:53:42.645Z,100.00
2022-09-15T23:56:11.049Z,100.00
2022-09-15T23:58:39.657Z,100.00
